Terminal Aerodrome Forecast
Issued by NWS

Current Version | Previous Version | Text Only | Print | Product List | Glossary On
Versions: 1 2 3 4 5 6 7 8 9 10 11 12 13 14 15 16 17 18 19 20 21 22
884
FTUS43 KAPX 291533 AAA
TAFPLN
TAF AMD
KPLN 291533Z 2916/3012 22007KT P6SM BKN017
     FM291800 23010G18KT P6SM VCSH BKN022
     FM292200 25011G19KT P6SM BKN035
     FM300200 26007KT P6SM BKN025
     FM300600 26004KT P6SM OVC008
     FM301100 24004KT 5SM BR BKN010=

USA.gov is the U.S. government's official web portal to all federal, state and local government web resources and services.